Time;durP1;ratioP1;P1;durP2;ratioP2;P2;SDS_P1;SDS_P2;PMS_P1;PMS_P2;Temp;Humidity;BMP_temperature;BMP_pressure;BME280_temperature;BME280_humidity;BME280_pressure;Samples;Min_cycle;Max_cycle;Signal;HPM_P1;HPM_P2
2023/11/22 00:00:26;;;;;;;1051.40;951.50;;;;;;;-2.96;86.70;101778.22;105969;1291;59037;-58
2023/11/22 00:03:12;;;;;;;1041.90;941.20;;;;;;;-2.97;86.72;101777.63;106030;1291;60961;-58
2023/11/22 00:05:59;;;;;;;1064.30;961.00;;;;;;;-3.00;86.59;101784.94;106004;1291;74154;-59
2023/11/22 00:08:44;;;;;;;1092.50;983.10;;;;;;;-3.02;86.68;101785.45;106043;1291;67562;-58
2023/11/22 00:11:30;;;;;;;1045.50;945.90;;;;;;;-3.05;86.74;101792.03;105979;1291;71333;-59
2023/11/22 00:14:16;;;;;;;1063.50;960.60;;;;;;;-3.07;86.84;101799.16;106019;1292;59235;-59
2023/11/22 00:17:02;;;;;;;1042.80;944.50;;;;;;;-3.09;86.46;101805.98;106031;1292;59722;-57
2023/11/22 00:19:48;;;;;;;1081.50;974.90;;;;;;;-3.10;86.13;101807.28;105994;1291;74592;-58
2023/11/22 00:22:35;;;;;;;1071.30;965.80;;;;;;;-3.12;85.97;101811.22;106000;1291;68865;-58
2023/11/22 00:25:21;;;;;;;1046.70;947.10;;;;;;;-3.15;86.34;101817.82;106011;1292;71685;-59
2023/11/22 00:28:07;;;;;;;1035.40;938.30;;;;;;;-3.17;86.73;101816.85;106008;1292;59208;-56
2023/11/22 00:30:53;;;;;;;1056.80;956.20;;;;;;;-3.20;86.51;101810.92;106000;1291;58925;-57
2023/11/22 00:33:39;;;;;;;1026.10;928.90;;;;;;;-3.23;86.53;101821.55;106017;1292;73432;-59
2023/11/22 00:36:25;;;;;;;1025.50;929.60;;;;;;;-3.24;86.64;101819.30;105990;1292;68554;-58
2023/11/22 00:39:13;;;;;;;1069.30;964.90;;;;;;;-3.26;86.36;101819.52;106003;1291;71085;-58
2023/11/22 00:41:59;;;;;;;1016.80;922.20;;;;;;;-3.28;86.66;101818.21;106001;1292;59014;-58
2023/11/22 00:44:45;;;;;;;1123.70;999.90;;;;;;;-3.30;86.71;101818.94;106031;1292;60016;-58
2023/11/22 00:47:32;;;;;;;1042.40;942.20;;;;;;;-3.31;86.78;101826.65;105997;1292;74909;-59
2023/11/22 00:50:21;;;;;;;1043.40;943.30;;;;;;;-3.31;86.65;101840.11;106031;1292;69975;-57
2023/11/22 00:53:07;;;;;;;1013.00;919.00;;;;;;;-3.33;86.32;101840.14;106007;1292;73161;-59
2023/11/22 00:55:53;;;;;;;;;;;;;;;-3.36;86.24;101847.94;106042;1292;59740;-58
2023/11/22 00:58:39;;;;;;;1071.20;966.30;;;;;;;-3.38;86.35;101849.80;106025;1291;59445;-58
2023/11/22 01:01:25;;;;;;;;;;;;;;;-3.41;86.60;101844.94;106001;1292;74742;-59
2023/11/22 01:04:11;;;;;;;1039.00;940.60;;;;;;;-3.43;86.54;101843.76;106030;1292;68588;-58
2023/11/22 01:06:57;;;;;;;1056.70;954.80;;;;;;;-3.47;86.79;101849.47;106008;1291;72998;-59
2023/11/22 01:09:43;;;;;;;;;;;;;;;-3.50;86.84;101853.29;106014;1291;58932;-59
2023/11/22 01:12:29;;;;;;;1038.90;941.60;;;;;;;-3.55;86.65;101852.66;106039;1292;59897;-58
2023/11/22 01:15:15;;;;;;;998.20;907.00;;;;;;;-3.56;86.83;101856.30;106010;1292;73143;-58
2023/11/22 01:18:00;;;;;;;;;;;;;;;-3.57;86.64;101867.00;106054;1292;67402;-59
2023/11/22 01:20:46;;;;;;;1039.10;941.40;;;;;;;-3.59;86.69;101874.82;106041;1291;71159;-59
2023/11/22 01:23:32;;;;;;;;;;;;;;;-3.61;86.90;101878.25;106009;1292;59458;-57
2023/11/22 01:26:18;;;;;;;1053.10;951.50;;;;;;;-3.62;87.06;101881.73;106006;1292;59820;-58
2023/11/22 01:29:05;;;;;;;1014.00;921.40;;;;;;;-3.66;86.92;101884.05;106026;1292;73103;-58
2023/11/22 01:31:51;;;;;;;1005.40;913.00;;;;;;;-3.68;87.13;101880.73;105956;1295;68605;-58
2023/11/22 01:34:37;;;;;;;1014.40;922.50;;;;;;;-3.70;87.12;101876.20;106044;1292;71553;-59
2023/11/22 01:37:23;;;;;;;991.00;901.70;;;;;;;-3.74;87.07;101879.81;106004;1292;59235;-59
2023/11/22 01:40:10;;;;;;;1010.10;916.30;;;;;;;-3.79;87.10;101881.05;106030;1292;59321;-58
2023/11/22 01:42:56;;;;;;;994.60;904.80;;;;;;;-3.82;87.12;101883.85;106011;1292;73563;-58
2023/11/22 01:45:42;;;;;;;1018.90;924.00;;;;;;;-3.84;87.17;101884.75;106008;1291;68823;-58
2023/11/22 01:48:29;;;;;;;1001.50;909.50;;;;;;;-3.86;86.98;101886.48;105985;1292;72360;-58
2023/11/22 01:51:15;;;;;;;1005.30;913.00;;;;;;;-3.88;87.15;101892.95;105975;1292;59055;-58
2023/11/22 01:54:01;;;;;;;;;;;;;;;-3.90;87.13;101901.20;106049;1291;60841;-58
2023/11/22 01:56:48;;;;;;;1004.00;911.70;;;;;;;-3.93;87.16;101907.08;106036;1292;73289;-58
2023/11/22 01:59:35;;;;;;;1000.80;909.80;;;;;;;-3.94;87.30;101915.60;106004;1294;68123;-58
2023/11/22 02:02:21;;;;;;;1012.00;919.00;;;;;;;-3.96;87.14;101928.45;101965;1292;5003298;-58
2023/11/22 02:05:08;;;;;;;979.10;891.20;;;;;;;-3.99;87.20;101937.71;105896;1294;59072;-58
2023/11/22 02:07:55;;;;;;;976.80;888.70;;;;;;;-4.01;87.29;101939.79;105961;1293;73178;-58
2023/11/22 02:10:41;;;;;;;973.70;886.80;;;;;;;-4.03;87.29;101942.67;105983;1293;67342;-58
2023/11/22 02:13:27;;;;;;;999.10;908.60;;;;;;;-4.05;87.35;101946.10;105961;1293;71140;-58
2023/11/22 02:16:13;;;;;;;;;;;;;;;-4.06;87.28;101949.02;105968;1293;59028;-59
2023/11/22 02:19:00;;;;;;;1014.70;922.10;;;;;;;-4.08;87.23;101951.09;105944;1292;59683;-58
2023/11/22 02:21:47;;;;;;;1003.10;911.40;;;;;;;-4.10;87.28;101943.71;105956;1293;73226;-58
2023/11/22 02:24:34;;;;;;;994.20;903.00;;;;;;;-4.13;87.38;101939.67;105958;1292;67326;-59
2023/11/22 02:27:20;;;;;;;974.20;888.60;;;;;;;-4.15;87.40;101940.56;105912;1294;72064;-58
2023/11/22 02:30:06;;;;;;;983.50;895.60;;;;;;;-4.16;87.34;101937.80;105936;1295;59287;-59
2023/11/22 02:32:53;;;;;;;995.20;903.90;;;;;;;-4.19;87.29;101937.61;105921;1292;60766;-59
2023/11/22 02:35:40;;;;;;;1019.00;924.50;;;;;;;-4.22;87.32;101942.32;105985;1293;74715;-58
2023/11/22 02:38:27;;;;;;;981.80;894.40;;;;;;;-4.23;87.32;101952.48;105954;1292;67682;-58
2023/11/22 02:41:13;;;;;;;981.90;893.50;;;;;;;-4.25;87.31;101959.29;105960;1293;72259;-59
2023/11/22 02:43:59;;;;;;;;;;;;;;;-4.26;87.36;101969.63;105975;1293;59483;-57
2023/11/22 02:46:45;;;;;;;1061.40;957.70;;;;;;;-4.28;87.41;101974.41;105907;1293;60487;-58
2023/11/22 02:49:31;;;;;;;;;;;;;;;-4.28;87.43;101981.09;106003;1293;73384;-58
2023/11/22 02:52:17;;;;;;;1061.60;958.50;;;;;;;-4.30;87.38;101968.88;105929;1293;69002;-58
2023/11/22 02:55:07;;;;;;;1007.00;913.30;;;;;;;-4.32;87.36;101962.67;105894;1292;71426;-59
2023/11/22 02:57:53;;;;;;;1006.20;916.70;;;;;;;-4.35;87.32;101964.52;105937;1293;59554;-59
2023/11/22 03:00:42;;;;;;;;;;;;;;;-4.39;87.32;101960.90;105954;1292;60064;-57
2023/11/22 03:03:28;;;;;;;1049.80;948.50;;;;;;;-4.42;87.28;101948.05;105967;1293;73420;-59
2023/11/22 03:06:14;;;;;;;1011.70;918.60;;;;;;;-4.47;87.27;101950.27;105971;1293;67454;-58
2023/11/22 03:09:00;;;;;;;1005.80;914.60;;;;;;;-4.49;87.30;101949.95;105978;1294;71372;-57
2023/11/22 03:11:46;;;;;;;1017.70;923.30;;;;;;;-4.53;87.19;101951.36;105897;1293;59781;-59
2023/11/22 03:14:32;;;;;;;;;;;;;;;-4.56;87.23;101953.02;105996;1294;59251;-59
2023/11/22 03:17:18;;;;;;;1062.60;959.10;;;;;;;-4.61;87.19;101954.18;105994;1292;74568;-58
2023/11/22 03:20:09;;;;;;;1036.20;940.50;;;;;;;-4.63;87.32;101960.94;105952;1293;67267;-57
2023/11/22 03:22:55;;;;;;;1014.10;920.10;;;;;;;-4.68;87.17;101977.52;105978;1293;71405;-58
2023/11/22 03:25:41;;;;;;;1014.20;921.70;;;;;;;-4.71;87.20;101976.48;105894;1293;59872;-58
2023/11/22 03:28:30;;;;;;;;;;;;;;;-4.74;87.16;101974.58;105932;1294;59029;-58
2023/11/22 03:31:16;;;;;;;1060.60;958.50;;;;;;;-4.78;87.17;101978.12;105980;1292;74269;-58
2023/11/22 03:34:04;;;;;;;1008.40;914.50;;;;;;;-4.83;87.18;101980.20;105907;1293;68253;-58
2023/11/22 03:36:50;;;;;;;1010.70;916.80;;;;;;;-4.85;87.25;101976.31;105960;1293;72333;-58
2023/11/22 03:39:36;;;;;;;;;;;;;;;-4.86;87.29;101977.30;105973;1293;60099;-59
2023/11/22 03:42:22;;;;;;;1039.10;939.60;;;;;;;-4.86;87.22;101982.11;105902;1292;59393;-58
2023/11/22 03:45:09;;;;;;;;;;;;;;;-4.91;87.20;101985.70;105966;1292;72282;-58
2023/11/22 03:47:55;;;;;;;1046.30;944.90;;;;;;;-4.93;87.15;101991.93;106003;1292;67960;-59
2023/11/22 03:50:40;;;;;;;;;;;;;;;-4.95;87.12;102002.69;105982;1292;71255;-58
2023/11/22 03:53:26;;;;;;;1048.00;946.20;;;;;;;-4.96;87.15;102005.63;105963;1291;61189;-58
2023/11/22 03:56:12;;;;;;;;;;;;;;;-5.00;87.14;102005.55;105882;1293;60547;-58
2023/11/22 03:58:58;;;;;;;1046.80;946.00;;;;;;;-5.05;87.12;102007.94;105971;1294;73272;-59
2023/11/22 04:01:44;;;;;;;1012.90;919.20;;;;;;;-5.10;87.07;102014.81;105934;1292;67462;-59
2023/11/22 04:04:30;;;;;;;;;;;;;;;-5.12;87.09;102014.81;105966;1294;71155;-59
2023/11/22 04:07:16;;;;;;;1033.80;935.20;;;;;;;-5.16;87.21;102014.38;105908;1293;58925;-59
2023/11/22 04:10:02;;;;;;;;;;;;;;;-5.20;87.03;102024.04;105960;1293;59147;-59
2023/11/22 04:12:49;;;;;;;1030.50;933.10;;;;;;;-5.21;87.00;102034.53;105926;1293;73491;-58
2023/11/22 04:15:35;;;;;;;997.40;905.80;;;;;;;-5.25;87.03;102047.55;105935;1294;67571;-59
2023/11/22 04:18:21;;;;;;;1000.40;908.00;;;;;;;-5.27;87.03;102055.99;105938;1294;72492;-59
2023/11/22 04:21:07;;;;;;;;;;;;;;;-5.29;87.02;102049.64;105980;1293;58961;-59
2023/11/22 04:23:53;;;;;;;1029.10;931.70;;;;;;;-5.37;87.01;102038.19;105992;1295;59456;-58
2023/11/22 04:26:39;;;;;;;;;;;;;;;-5.40;86.99;102043.47;105976;1293;73403;-59
2023/11/22 04:29:25;;;;;;;1010.40;915.80;;;;;;;-5.43;86.99;102057.89;105981;1294;68287;-57
2023/11/22 04:32:11;;;;;;;;;;;;;;;-5.45;87.02;102061.77;106002;1293;71192;-58
2023/11/22 04:34:58;;;;;;;1001.20;908.50;;;;;;;-5.48;87.02;102064.23;105973;1293;59066;-59
2023/11/22 04:37:44;;;;;;;991.80;901.10;;;;;;;-5.52;87.01;102073.84;105999;1293;59103;-58
2023/11/22 04:40:30;;;;;;;;;;;;;;;-5.57;87.03;102096.34;105910;1294;73374;-58
2023/11/22 04:43:16;;;;;;;1049.50;948.90;;;;;;;-5.61;86.91;102104.23;105901;1293;68577;-58
2023/11/22 04:46:04;;;;;;;;;;;;;;;-5.73;87.10;102101.09;105966;1294;72171;-59
2023/11/22 04:48:51;;;;;;;1001.50;909.70;;;;;;;-5.78;86.99;102113.65;105930;1292;59266;-59
2023/11/22 04:51:37;;;;;;;984.20;894.80;;;;;;;-5.81;86.92;102115.09;105995;1292;59004;-58
2023/11/22 04:54:23;;;;;;;;;;;;;;;-5.86;86.85;102105.98;105975;1293;74294;-58
2023/11/22 04:57:10;;;;;;;972.60;885.20;;;;;;;-5.89;86.87;102106.27;105914;1294;67221;-58
2023/11/22 04:59:56;;;;;;;954.70;870.90;;;;;;;-5.92;86.97;102106.54;105907;1293;73430;-58
2023/11/22 05:02:42;;;;;;;939.20;856.60;;;;;;;-5.98;86.82;102107.13;105945;1293;59408;-57
2023/11/22 05:05:28;;;;;;;;;;;;;;;-5.99;86.97;102139.95;105934;1293;60094;-59
2023/11/22 05:08:14;;;;;;;933.80;852.90;;;;;;;-5.99;87.02;102144.15;105904;1294;74704;-58
2023/11/22 05:11:00;;;;;;;919.20;839.90;;;;;;;-6.02;87.07;102132.73;105973;1293;67463;-58
2023/11/22 05:13:46;;;;;;;890.90;815.70;;;;;;;-6.01;87.06;102136.64;105938;1294;71232;-58
2023/11/22 05:16:33;;;;;;;899.60;823.00;;;;;;;-6.04;87.00;102141.98;105973;1293;59747;-58
2023/11/22 05:19:19;;;;;;;908.10;830.30;;;;;;;-6.05;86.96;102129.96;105939;1293;59621;-58
2023/11/22 05:22:05;;;;;;;881.50;807.10;;;;;;;-6.08;86.92;102127.23;105925;1293;74945;-58
2023/11/22 05:24:51;;;;;;;917.00;837.20;;;;;;;-6.12;86.87;102121.35;105990;1294;67383;-57
2023/11/22 05:27:37;;;;;;;893.70;818.30;;;;;;;-6.15;86.77;102123.02;105961;1294;72465;-58
2023/11/22 05:30:23;;;;;;;906.30;828.40;;;;;;;-6.16;86.86;102132.00;105952;1293;59354;-58
2023/11/22 05:33:09;;;;;;;;;;;;;;;-6.15;86.81;102135.09;105985;1292;60060;-57
2023/11/22 05:35:54;;;;;;;904.90;827.80;;;;;;;-6.15;86.93;102146.30;105920;1293;73467;-58
2023/11/22 05:38:41;;;;;;;876.70;803.50;;;;;;;-6.13;86.94;102146.11;105948;1292;67269;-58
2023/11/22 05:41:26;;;;;;;870.10;797.40;;;;;;;-6.12;86.96;102144.89;105940;1294;72483;-58
2023/11/22 05:44:12;;;;;;;864.70;792.00;;;;;;;-6.11;86.96;102139.77;105938;1297;59158;-59
2023/11/22 05:46:58;;;;;;;873.90;801.20;;;;;;;-6.10;87.00;102143.38;105981;1294;60016;-59
2023/11/22 05:49:44;;;;;;;855.50;784.70;;;;;;;-6.10;86.95;102141.51;105979;1293;75002;-58
2023/11/22 05:52:30;;;;;;;;;;;;;;;-6.12;86.86;102140.99;105970;1294;68612;-57
2023/11/22 05:55:18;;;;;;;895.90;820.30;;;;;;;-6.13;86.87;102137.58;105961;1292;71359;-59
2023/11/22 05:58:04;;;;;;;871.90;799.20;;;;;;;-6.17;86.83;102148.66;105952;1293;59863;-59
2023/11/22 06:00:50;;;;;;;874.40;801.10;;;;;;;-6.23;86.65;102160.64;105944;1293;61412;-57
2023/11/22 06:03:36;;;;;;;862.10;790.80;;;;;;;-6.29;86.60;102160.21;105970;1294;74552;-58
2023/11/22 06:06:23;;;;;;;867.00;795.10;;;;;;;-6.29;86.85;102162.70;105953;1294;68619;-58
2023/11/22 06:09:12;;;;;;;858.90;787.80;;;;;;;-6.29;86.85;102157.70;105952;1293;72219;-59
2023/11/22 06:11:58;;;;;;;882.60;808.60;;;;;;;-6.30;86.83;102164.50;105970;1293;59513;-59
2023/11/22 06:14:44;;;;;;;861.40;789.80;;;;;;;-6.30;86.84;102167.65;105934;1293;58800;-58
2023/11/22 06:17:30;;;;;;;876.80;804.00;;;;;;;-6.30;86.73;102175.05;105880;1293;74432;-57
2023/11/22 06:20:16;;;;;;;877.90;804.60;;;;;;;-6.31;86.70;102166.75;105913;1292;69342;-58
2023/11/22 06:23:02;;;;;;;870.20;797.80;;;;;;;-6.32;86.75;102171.08;105833;1294;71336;-57
2023/11/22 06:25:49;;;;;;;885.30;810.70;;;;;;;-6.32;86.73;102188.52;105824;1294;60695;-58
2023/11/22 06:28:35;;;;;;;847.60;778.40;;;;;;;-6.30;86.79;102203.27;105850;1293;59552;-60
2023/11/22 06:31:22;;;;;;;868.20;796.30;;;;;;;-6.28;86.84;102200.40;105887;1294;75013;-58
2023/11/22 06:34:08;;;;;;;;;;;;;;;-6.24;86.91;102197.15;105875;1294;68347;-58
2023/11/22 06:36:54;;;;;;;895.80;820.00;;;;;;;-6.20;86.91;102201.79;105698;1294;72535;-58
2023/11/22 06:39:39;;;;;;;889.30;813.60;;;;;;;-6.19;86.81;102212.48;105854;1295;59399;-59
2023/11/22 06:42:26;;;;;;;;;;;;;;;-6.16;86.88;102220.71;105862;1294;60100;-59
2023/11/22 06:45:12;;;;;;;881.10;806.90;;;;;;;-6.10;87.05;102220.89;105855;1294;75004;-59
2023/11/22 06:47:58;;;;;;;850.80;780.10;;;;;;;-6.03;87.06;102218.61;105856;1294;68362;-58
2023/11/22 06:50:45;;;;;;;863.40;792.10;;;;;;;-5.99;87.01;102229.61;105882;1294;72400;-59
2023/11/22 06:53:31;;;;;;;960.00;874.20;;;;;;;-5.95;86.84;102242.84;105855;1294;59019;-58
2023/11/22 06:56:17;;;;;;;964.20;876.90;;;;;;;-5.87;86.93;102251.33;105874;1294;59436;-58
2023/11/22 06:59:03;;;;;;;1008.70;914.10;;;;;;;-5.78;87.04;102252.35;105864;1294;74064;-59
2023/11/22 07:01:49;;;;;;;1059.70;956.70;;;;;;;-5.67;87.01;102261.56;105711;1294;67186;-57
2023/11/22 07:04:35;;;;;;;;;;;;;;;-5.54;87.21;102280.52;105759;1294;71199;-58
2023/11/22 07:07:21;;;;;;;1125.70;999.90;;;;;;;-5.34;87.53;102283.70;105719;1294;58401;-58
2023/11/22 07:10:07;;;;;;;;;;;;;;;-5.11;87.50;102286.91;105844;1294;60163;-59
2023/11/22 07:12:53;;;;;;;1303.90;999.90;;;;;;;-4.82;87.72;102290.76;105816;1294;73234;-58
2023/11/22 07:15:40;;;;;;;;;;;;;;;-4.56;87.74;102296.30;105704;1294;68464;-59
2023/11/22 07:18:27;;;;;;;1255.90;999.90;;;;;;;-4.36;87.72;102295.02;105814;1294;73007;-59
2023/11/22 07:21:13;;;;;;;1113.80;997.80;;;;;;;-4.24;87.74;102301.97;105783;1293;59016;-58
2023/11/22 07:23:59;;;;;;;;;;;;;;;-4.08;87.83;102309.08;105951;1294;59670;-58
2023/11/22 07:26:46;;;;;;;1108.60;992.90;;;;;;;-3.95;87.89;102300.26;105798;1293;73462;-57
2023/11/22 07:29:32;;;;;;;1066.70;966.60;;;;;;;-3.82;87.96;102289.35;105875;1293;67222;-58
2023/11/22 07:32:20;;;;;;;;;;;;;;;-3.69;87.97;102271.23;105938;1295;73518;-59
2023/11/22 07:35:08;;;;;;;976.30;889.90;;;;;;;-3.57;87.93;102266.92;105897;1294;59852;-58
2023/11/22 07:37:54;;;;;;;1087.40;980.10;;;;;;;-3.42;88.06;102273.35;105895;1294;59016;-59
2023/11/22 07:40:41;;;;;;;1081.80;971.70;;;;;;;-3.27;88.12;102256.83;105898;1294;73353;-59
2023/11/22 07:43:27;;;;;;;1103.10;988.50;;;;;;;-3.17;88.04;102253.25;105915;1292;69132;-58
2023/11/22 07:46:13;;;;;;;1129.80;996.20;;;;;;;-3.08;87.94;102259.44;105909;1293;72392;-58
2023/11/22 07:48:59;;;;;;;;;;;;;;;-3.09;87.60;102266.61;105907;1294;59380;-58
2023/11/22 07:51:45;;;;;;;994.30;898.40;;;;;;;-3.08;87.55;102266.16;105860;1293;60121;-58
2023/11/22 07:54:31;;;;;;;;;;;;;;;-3.07;87.65;102258.29;105902;1292;73379;-59
2023/11/22 07:57:20;;;;;;;970.00;872.60;;;;;;;-3.00;87.90;102257.06;105889;1292;67257;-58
2023/11/22 08:00:07;;;;;;;1126.50;996.10;;;;;;;-2.97;87.94;102250.52;105878;1295;71374;-58
2023/11/22 08:02:54;;;;;;;1126.50;996.10;;;;;;;-2.94;87.53;102230.42;98521;1294;10001571;-57
2023/11/22 08:05:40;;;;;;;1214.20;999.90;;;;;;;-2.93;87.82;102227.48;105934;1292;74121;-58
2023/11/22 08:08:26;;;;;;;1289.50;999.90;;;;;;;-2.73;88.41;102228.10;105887;1294;67439;-58
2023/11/22 08:11:14;;;;;;;1286.40;999.90;;;;;;;-2.52;88.61;102229.35;105899;1294;72125;-58
2023/11/22 08:14:01;;;;;;;1343.10;999.90;;;;;;;-2.30;88.69;102218.48;105945;1293;59811;-59
2023/11/22 08:16:47;;;;;;;1383.80;999.90;;;;;;;-1.93;88.86;102214.25;105973;1293;59169;-59
2023/11/22 08:19:33;;;;;;;1349.10;999.90;;;;;;;-1.67;88.65;102214.13;105941;1292;73151;-58
2023/11/22 08:22:19;;;;;;;1391.90;999.90;;;;;;;-1.26;88.99;102217.30;105861;1294;67264;-59
2023/11/22 08:25:08;;;;;;;1280.70;999.90;;;;;;;-0.52;89.57;102214.85;105830;1294;72977;-59
2023/11/22 08:27:54;;;;;;;1144.70;999.90;;;;;;;0.09;89.29;102217.43;105833;1294;59245;-59
2023/11/22 08:30:40;;;;;;;1079.20;970.60;;;;;;;0.33;89.15;102224.09;105790;1294;59172;-58
2023/11/22 08:33:26;;;;;;;1028.40;930.50;;;;;;;0.91;90.09;102229.88;105843;1296;73413;-58
2023/11/22 08:36:12;;;;;;;973.50;884.90;;;;;;;1.46;86.79;102228.12;105862;1294;67382;-58
2023/11/22 08:39:00;;;;;;;944.10;860.40;;;;;;;1.81;89.19;102232.58;105821;1294;71160;-59
2023/11/22 08:41:49;;;;;;;1999.90;999.90;;;;;;;2.58;90.72;102230.98;105799;1294;59015;-59
2023/11/22 08:44:36;;;;;;;1999.90;999.90;;;;;;;3.51;91.63;102231.85;105833;1294;60171;-57
2023/11/22 08:47:22;;;;;;;1999.90;999.90;;;;;;;4.44;91.72;102238.66;105794;1295;74449;-56
2023/11/22 08:50:10;;;;;;;1999.90;999.90;;;;;;;5.24;92.10;102254.15;105811;1294;67582;-55
2023/11/22 08:52:57;;;;;;;1999.90;999.90;;;;;;;6.02;92.16;102257.73;105801;1294;72162;-57
2023/11/22 08:55:43;;;;;;;1999.90;999.90;;;;;;;6.53;90.69;102262.58;105820;1294;59349;-56
2023/11/22 08:58:29;;;;;;;1999.90;999.90;;;;;;;6.76;90.42;102268.33;105801;1294;59073;-56
2023/11/22 09:01:15;;;;;;;1999.90;999.90;;;;;;;7.15;91.07;102269.30;105812;1294;74135;-56
2023/11/22 09:04:01;;;;;;;1999.90;999.90;;;;;;;7.49;90.05;102267.85;105843;1294;68458;-57
2023/11/22 09:06:47;;;;;;;1999.90;983.20;;;;;;;7.76;89.17;102265.02;105774;1294;71421;-56
2023/11/22 09:09:34;;;;;;;1999.90;905.50;;;;;;;7.93;88.65;102256.45;105769;1294;59097;-56
2023/11/22 09:12:20;;;;;;;1999.90;954.80;;;;;;;8.56;91.69;102261.16;105821;1294;59167;-56
2023/11/22 09:15:09;;;;;;;1999.90;982.10;;;;;;;8.77;90.47;102264.14;105550;1294;268895;-57
2023/11/22 09:17:55;;;;;;;1999.90;999.90;;;;;;;8.43;87.97;102263.48;105859;1293;67475;-57
2023/11/22 09:20:44;;;;;;;1999.90;999.90;;;;;;;7.98;88.55;102256.38;105816;1293;72389;-56
2023/11/22 09:23:30;;;;;;;1999.90;999.90;;;;;;;7.80;90.62;102261.84;105960;1292;58776;-56
2023/11/22 09:26:16;;;;;;;1999.90;999.90;;;;;;;7.29;89.15;102264.64;106016;1292;59166;-56
2023/11/22 09:29:03;;;;;;;1999.90;999.90;;;;;;;6.99;89.59;102262.38;105950;1292;75239;-57
2023/11/22 09:31:51;;;;;;;1999.90;999.90;;;;;;;7.07;91.37;102260.52;105970;1291;68860;-57
2023/11/22 09:34:37;;;;;;;1999.90;999.90;;;;;;;7.19;91.22;102260.14;106009;1292;71237;-56
2023/11/22 09:37:25;;;;;;;1999.90;999.90;;;;;;;7.58;92.57;102261.89;105988;1292;59135;-56
2023/11/22 09:40:12;;;;;;;1999.90;999.90;;;;;;;7.38;82.52;102266.23;105727;1292;61395;-55
2023/11/22 09:43:01;;;;;;;1999.90;999.90;;;;;;;6.36;83.95;102273.58;104620;1292;76777;-54
2023/11/22 09:45:48;;;;;;;1999.90;999.90;;;;;;;5.80;85.85;102273.83;104459;1297;67207;-58
2023/11/22 09:48:36;;;;;;;1999.90;999.90;;;;;;;5.92;90.12;102280.36;104594;1292;71369;-58
2023/11/22 09:51:36;;;;;;;1999.90;999.90;;;;;;;6.47;91.04;102285.52;104610;1292;61123;-58
2023/11/22 09:54:29;;;;;;;1999.90;999.90;;;;;;;7.36;92.27;102281.78;104629;1292;63747;-58
2023/11/22 09:57:17;;;;;;;1999.90;871.80;;;;;;;8.67;93.51;102283.15;104568;1295;73340;-58
2023/11/22 10:00:05;;;;;;;1999.90;810.90;;;;;;;9.99;92.86;102282.13;104638;1292;67340;-58
2023/11/22 10:02:52;;;;;;;1999.90;720.80;;;;;;;11.03;91.73;102270.67;105973;1292;75074;-57
2023/11/22 10:05:41;;;;;;;1999.90;714.60;;;;;;;11.92;90.05;102260.73;105953;1291;58974;-56
2023/11/22 10:08:29;;;;;;;1999.90;722.90;;;;;;;12.81;89.84;102252.31;105989;1292;59340;-56
2023/11/22 10:11:17;;;;;;;1897.70;558.20;;;;;;;13.15;88.03;102251.44;105948;1292;74593;-56
2023/11/22 10:14:04;;;;;;;1999.90;625.90;;;;;;;13.33;79.89;102257.33;106003;1292;68686;-56
2023/11/22 10:17:01;;;;;;;1795.00;552.30;;;;;;;13.04;85.66;102251.27;106017;1292;72576;-56
2023/11/22 10:19:46;;;;;;;;;;;;;;;13.73;88.48;102245.80;105999;1292;59231;-56
2023/11/22 10:22:45;;;;;;;1999.90;576.60;;;;;;;14.13;79.91;102236.10;105995;1291;59007;-56
2023/11/22 10:25:32;;;;;;;1999.90;626.10;;;;;;;13.90;80.98;102235.35;104911;1297;73650;-55
2023/11/22 10:28:20;;;;;;;1999.90;611.60;;;;;;;13.52;82.09;102244.30;104822;1292;67792;-56
2023/11/22 10:31:07;;;;;;;1999.90;654.50;;;;;;;13.54;78.66;102252.96;104734;1292;71010;-56
2023/11/22 10:33:57;;;;;;;1999.90;608.70;;;;;;;13.33;80.98;102262.02;104783;1294;61133;-54
2023/11/22 10:36:43;;;;;;;1999.90;559.70;;;;;;;14.36;84.98;102263.57;104882;1294;281553;-55
2023/11/22 10:39:29;;;;;;;1999.90;630.00;;;;;;;14.48;81.11;102249.30;104781;1292;73228;-56
2023/11/22 10:42:16;;;;;;;1999.90;623.50;;;;;;;14.70;80.96;102246.36;104713;1294;67290;-56
2023/11/22 10:45:07;;;;;;;1998.20;562.70;;;;;;;14.93;82.98;102242.20;106150;1289;72490;-56
2023/11/22 10:47:55;;;;;;;1999.90;615.70;;;;;;;14.73;80.01;102239.39;106182;1289;60430;-56
2023/11/22 10:50:40;;;;;;;1988.00;542.80;;;;;;;14.94;82.83;102230.36;106150;1292;59370;-57
2023/11/22 10:53:34;;;;;;;1999.90;589.80;;;;;;;15.09;81.32;102224.33;106167;1292;75043;-57
2023/11/22 10:56:23;;;;;;;1999.90;606.20;;;;;;;15.19;83.48;102225.27;105185;1291;67555;-54
2023/11/22 10:59:15;;;;;;;1996.20;571.20;;;;;;;15.86;84.28;102229.95;104758;1289;71235;-56
2023/11/22 11:02:04;;;;;;;1995.00;572.70;;;;;;;15.60;81.04;102231.11;104773;1292;61216;-56
2023/11/22 11:05:12;;;;;;;1851.10;568.90;;;;;;;15.38;82.43;102232.73;104806;1290;61267;-56
2023/11/22 11:08:12;;;;;;;1999.90;607.70;;;;;;;15.57;82.21;102234.27;104771;1295;73353;-56
2023/11/22 11:10:59;;;;;;;1999.90;601.80;;;;;;;15.75;78.85;102236.34;105306;1289;67347;-57
2023/11/22 11:13:47;;;;;;;1999.90;580.50;;;;;;;15.77;78.93;102230.58;104757;1289;71235;-54
2023/11/22 11:17:10;;;;;;;1999.90;552.60;;;;;;;16.20;80.69;102222.35;104699;1293;61384;-55
2023/11/22 11:19:49;;;;;;;1999.90;508.70;;;;;;;16.97;81.22;102227.28;106166;1293;59139;-57
2023/11/22 11:22:35;;;;;;;1999.90;553.70;;;;;;;16.15;65.13;102227.63;106096;1291;73191;-57
2023/11/22 11:25:21;;;;;;;1999.90;543.70;;;;;;;15.27;74.23;102234.23;105698;1292;67430;-57
2023/11/22 11:28:14;;;;;;;1999.90;645.20;;;;;;;15.02;69.68;102227.17;104710;1294;73369;-57
2023/11/22 11:31:00;;;;;;;1994.20;512.50;;;;;;;14.69;75.71;102219.29;104720;1293;60934;-56
2023/11/22 11:33:53;;;;;;;1999.90;585.70;;;;;;;15.30;74.72;102219.08;104677;1293;61142;-56
2023/11/22 11:36:40;;;;;;;1999.90;580.20;;;;;;;15.24;74.82;102218.61;104709;1292;73966;-56
2023/11/22 11:39:31;;;;;;;1999.90;541.30;;;;;;;16.23;77.12;102223.52;104690;1294;69872;-57
2023/11/22 11:42:18;;;;;;;1998.80;487.50;;;;;;;16.79;76.84;102220.79;106075;1292;71321;-57
2023/11/22 11:45:06;;;;;;;1999.90;577.30;;;;;;;17.08;77.20;102224.48;106058;1292;59219;-57
2023/11/22 11:47:52;;;;;;;1999.90;532.50;;;;;;;17.30;76.13;102222.85;106043;1293;59993;-57
2023/11/22 11:50:38;;;;;;;1999.90;625.40;;;;;;;17.57;74.10;102227.41;104768;1293;72487;-54
2023/11/22 11:53:25;;;;;;;1999.90;599.60;;;;;;;17.55;73.06;102223.25;104737;1294;67774;-56
2023/11/22 11:56:12;;;;;;;1999.90;562.50;;;;;;;17.40;74.43;102222.48;104678;1294;73968;-57
2023/11/22 11:59:00;;;;;;;1999.90;635.00;;;;;;;17.45;74.53;102217.68;106065;1292;59032;-57
2023/11/22 12:01:46;;;;;;;1999.90;940.00;;;;;;;17.77;74.53;102216.20;106129;1291;59387;-57
2023/11/22 12:04:33;;;;;;;1999.90;876.00;;;;;;;17.54;70.15;102206.53;106102;1291;74368;-57
2023/11/22 12:07:18;;;;;;;;;;;;;;;16.90;71.19;102202.48;106131;1291;68639;-57
2023/11/22 12:10:06;;;;;;;1999.90;910.10;;;;;;;17.05;71.90;102198.23;104903;1294;71508;-57
2023/11/22 12:12:52;;;;;;;1999.90;885.00;;;;;;;16.18;62.20;102193.14;104848;1291;61229;-56
2023/11/22 12:15:38;;;;;;;1999.90;868.00;;;;;;;15.65;70.18;102189.34;104685;1292;61157;-57
2023/11/22 12:18:24;;;;;;;1999.90;861.30;;;;;;;15.86;71.35;102191.69;104730;1291;76024;-56
2023/11/22 12:21:12;;;;;;;1999.90;828.60;;;;;;;15.95;70.57;102191.05;104718;1294;67287;-56